Time;durP1;ratioP1;P1;durP2;ratioP2;P2;SDS_P1;SDS_P2;PMS_P1;PMS_P2;Temp;Humidity;BMP_temperature;BMP_pressure;BME280_temperature;BME280_humidity;BME280_pressure;Samples;Min_cycle;Max_cycle;Signal;HPM_P1;HPM_P2
2023/03/15 00:02:18;;;;;;;9.43;4.27;;;;;;;;;;5037808;28;20438;-55
2023/03/15 00:04:44;;;;;;;5.57;3.60;;;;;;;;;;5005142;28;20991;-54
2023/03/15 00:07:10;;;;;;;6.53;3.30;;;;;;;;;;5032934;28;20460;-52
2023/03/15 00:09:36;;;;;;;7.33;3.07;;;;;;;;;;5025515;28;20554;-53
2023/03/15 00:12:02;;;;;;;6.30;3.30;;;;;;;;;;5037959;28;20430;-53
2023/03/15 00:14:28;;;;;;;5.67;3.70;;;;;;;;;;4992514;28;20812;-52
2023/03/15 00:16:54;;;;;;;6.03;3.53;;;;;;;;;;5029945;28;20447;-50
2023/03/15 00:19:20;;;;;;;10.13;2.97;;;;;;;;;;5004574;28;20443;-52
2023/03/15 00:21:46;;;;;;;5.97;3.50;;;;;;;;;;5027074;28;23962;-54
2023/03/15 00:24:12;;;;;;;5.67;3.87;;;;;;;;;;5006043;28;20531;-53
2023/03/15 00:26:38;;;;;;;6.00;4.57;;;;;;;;;;5024047;28;20446;-52
2023/03/15 00:29:04;;;;;;;7.00;4.20;;;;;;;;;;5022730;28;20507;-52
2023/03/15 00:31:30;;;;;;;7.10;3.40;;;;;;;;;;5031623;28;20485;-52
2023/03/15 00:33:56;;;;;;;6.57;3.63;;;;;;;;;;5019332;28;20516;-51
2023/03/15 00:36:22;;;;;;;6.47;4.03;;;;;;;;;;5007276;28;20447;-53
2023/03/15 00:38:49;;;;;;;6.47;3.63;;;;;;;;;;5011432;28;21656;-54
2023/03/15 00:41:17;;;;;;;3.77;2.87;;;;;;;;;;5012224;28;20447;-51
2023/03/15 00:43:43;;;;;;;8.10;4.53;;;;;;;;;;5029020;28;20497;-52
2023/03/15 00:46:09;;;;;;;7.63;3.53;;;;;;;;;;5016562;28;20447;-53
2023/03/15 00:51:41;;;;;;;7.03;3.53;;;;;;;;;;5002065;28;20457;-52
2023/03/15 00:54:07;;;;;;;5.83;3.20;;;;;;;;;;5033338;28;20477;-50
2023/03/15 00:56:33;;;;;;;7.20;4.30;;;;;;;;;;5032078;28;20524;-53
2023/03/15 00:58:59;;;;;;;5.20;3.00;;;;;;;;;;5038276;28;20469;-52
2023/03/15 01:01:26;;;;;;;4.27;2.93;;;;;;;;;;5007607;28;20438;-52
2023/03/15 01:03:52;;;;;;;4.70;2.87;;;;;;;;;;5038535;28;20461;-53
2023/03/15 01:06:22;;;;;;;4.63;3.20;;;;;;;;;;4992972;28;20452;-52
2023/03/15 01:08:48;;;;;;;8.63;3.77;;;;;;;;;;5036201;28;20815;-53
2023/03/15 01:11:15;;;;;;;4.77;2.90;;;;;;;;;;4972604;28;20447;-51
2023/03/15 01:13:41;;;;;;;3.70;2.60;;;;;;;;;;5027932;28;20501;-53
2023/03/15 01:16:10;;;;;;;3.67;2.23;;;;;;;;;;5007396;28;21794;-53
2023/03/15 01:18:36;;;;;;;5.03;2.50;;;;;;;;;;5028629;28;20501;-52
2023/03/15 01:21:10;;;;;;;5.73;2.37;;;;;;;;;;5020448;28;20551;-52
2023/03/15 01:23:36;;;;;;;3.73;2.90;;;;;;;;;;5010605;28;20450;-52
2023/03/15 01:26:02;;;;;;;4.90;2.37;;;;;;;;;;5033320;28;20442;-53
2023/03/15 01:28:28;;;;;;;9.00;3.17;;;;;;;;;;5034589;28;20532;-52
2023/03/15 01:30:54;;;;;;;4.63;1.93;;;;;;;;;;5034482;28;20461;-53
2023/03/15 01:33:21;;;;;;;6.53;2.53;;;;;;;;;;5036258;28;21353;-54
2023/03/15 01:35:47;;;;;;;5.13;3.00;;;;;;;;;;5013417;28;20446;-52
2023/03/15 01:38:13;;;;;;;8.43;2.80;;;;;;;;;;5027533;28;20924;-53
2023/03/15 01:40:43;;;;;;;4.87;2.40;;;;;;;;;;5007643;28;20848;-54
2023/03/15 01:43:15;;;;;;;2.70;2.30;;;;;;;;;;5034193;28;20450;-55
2023/03/15 01:45:53;;;;;;;11.70;2.83;;;;;;;;;;5004787;28;20586;-53
2023/03/15 01:48:19;;;;;;;2.17;1.47;;;;;;;;;;5035957;28;20546;-53
2023/03/15 01:50:45;;;;;;;4.60;1.83;;;;;;;;;;5005933;28;20426;-53
2023/03/15 01:53:11;;;;;;;3.70;2.00;;;;;;;;;;5031538;28;20532;-52
2023/03/15 01:55:37;;;;;;;3.50;2.17;;;;;;;;;;5006188;28;20501;-53
2023/03/15 01:58:06;;;;;;;4.23;2.47;;;;;;;;;;5037480;28;20450;-53
2023/03/15 02:00:32;;;;;;;7.40;2.47;;;;;;;;;;5008712;28;20442;-54
2023/03/15 02:03:04;;;;;;;3.90;2.03;;;;;;;;;;5034280;28;20466;-52
2023/03/15 02:05:31;;;;;;;5.90;2.13;;;;;;;;;;5035364;28;20434;-52
2023/03/15 02:07:57;;;;;;;2.17;1.73;;;;;;;;;;5036622;28;20432;-53
2023/03/15 02:10:25;;;;;;;9.13;2.17;;;;;;;;;;5006093;28;20447;-53
2023/03/15 02:12:52;;;;;;;3.47;1.70;;;;;;;;;;5039120;28;20935;-53
2023/03/15 02:15:18;;;;;;;4.63;2.13;;;;;;;;;;5002272;28;21321;-54
2023/03/15 02:17:45;;;;;;;3.43;1.73;;;;;;;;;;5037902;28;20503;-55
2023/03/15 02:20:26;;;;;;;6.77;1.60;;;;;;;;;;5008687;28;20441;-54
2023/03/15 02:22:56;;;;;;;2.30;1.30;;;;;;;;;;5032973;28;20442;-50
2023/03/15 02:25:42;;;;;;;1.90;1.40;;;;;;;;;;5012548;28;20685;-52
2023/03/15 02:28:09;;;;;;;1.30;1.10;;;;;;;;;;5029393;28;20446;-51
2023/03/15 02:30:35;;;;;;;2.93;1.50;;;;;;;;;;5018337;28;20489;-52
2023/03/15 02:33:02;;;;;;;2.70;1.67;;;;;;;;;;5027605;28;21002;-55
2023/03/15 02:35:29;;;;;;;4.13;1.60;;;;;;;;;;5035601;28;20466;-53
2023/03/15 02:37:55;;;;;;;6.43;1.50;;;;;;;;;;5031026;28;20430;-51
2023/03/15 02:40:22;;;;;;;5.33;1.03;;;;;;;;;;5025577;28;21061;-51
2023/03/15 02:42:50;;;;;;;2.27;1.30;;;;;;;;;;5009685;28;20573;-53
2023/03/15 02:45:16;;;;;;;3.60;1.53;;;;;;;;;;5026435;28;20470;-52
2023/03/15 02:47:42;;;;;;;2.30;1.47;;;;;;;;;;5007903;28;20558;-51
2023/03/15 02:50:09;;;;;;;2.20;1.43;;;;;;;;;;5034398;28;20434;-52
2023/03/15 02:52:35;;;;;;;1.50;1.27;;;;;;;;;;5015459;28;20439;-54
2023/03/15 02:55:01;;;;;;;3.10;1.10;;;;;;;;;;5034401;28;20504;-52
2023/03/15 02:57:27;;;;;;;3.63;1.67;;;;;;;;;;4995733;28;20311;-54
2023/03/15 02:59:53;;;;;;;16.27;1.87;;;;;;;;;;5030626;28;20525;-56
2023/03/15 03:02:19;;;;;;;1.50;1.10;;;;;;;;;;5020092;28;20437;-54
2023/03/15 03:04:45;;;;;;;4.80;1.30;;;;;;;;;;5049723;28;20443;-52
2023/03/15 03:07:11;;;;;;;2.30;1.43;;;;;;;;;;5019328;28;20456;-53
2023/03/15 03:09:37;;;;;;;2.00;1.33;;;;;;;;;;5039680;28;20449;-52
2023/03/15 03:12:03;;;;;;;11.43;2.07;;;;;;;;;;5006416;28;20446;-52
2023/03/15 03:14:30;;;;;;;10.83;1.53;;;;;;;;;;5030792;28;20481;-52
2023/03/15 03:16:56;;;;;;;4.30;2.10;;;;;;;;;;5003580;28;20442;-52
2023/03/15 03:19:24;;;;;;;6.27;1.90;;;;;;;;;;5036194;28;20430;-53
2023/03/15 03:21:52;;;;;;;2.00;1.30;;;;;;;;;;5007875;28;20431;-51
2023/03/15 03:24:18;;;;;;;3.30;1.93;;;;;;;;;;5038175;28;20466;-51
2023/03/15 03:26:44;;;;;;;5.23;1.70;;;;;;;;;;5013237;28;21889;-52
2023/03/15 03:29:10;;;;;;;8.87;2.67;;;;;;;;;;5033840;28;20728;-51
2023/03/15 03:31:36;;;;;;;3.10;1.50;;;;;;;;;;4988064;28;20574;-53
2023/03/15 03:34:02;;;;;;;3.93;1.77;;;;;;;;;;5043735;28;20487;-52
2023/03/15 03:36:28;;;;;;;5.67;2.53;;;;;;;;;;5036626;28;20422;-52
2023/03/15 03:38:55;;;;;;;3.63;2.40;;;;;;;;;;5029543;28;20454;-54
2023/03/15 03:41:22;;;;;;;2.83;1.77;;;;;;;;;;5013815;28;20545;-52
2023/03/15 03:43:48;;;;;;;3.00;1.80;;;;;;;;;;5032979;28;21268;-53
2023/03/15 03:46:14;;;;;;;3.80;2.23;;;;;;;;;;5021744;28;20453;-52
2023/03/15 03:48:40;;;;;;;3.83;2.10;;;;;;;;;;5026021;28;20439;-54
2023/03/15 03:51:07;;;;;;;4.30;1.87;;;;;;;;;;5018048;28;20530;-52
2023/03/15 03:53:33;;;;;;;4.10;1.37;;;;;;;;;;5019442;28;20473;-50
2023/03/15 03:56:02;;;;;;;5.70;2.27;;;;;;;;;;5036104;28;20419;-52
2023/03/15 03:58:28;;;;;;;3.80;1.67;;;;;;;;;;5030389;28;20452;-53
2023/03/15 04:01:23;;;;;;;1.87;1.40;;;;;;;;;;5030865;28;20438;-53
2023/03/15 04:03:56;;;;;;;3.50;2.00;;;;;;;;;;4990505;28;20485;-52
2023/03/15 04:06:22;;;;;;;5.97;1.90;;;;;;;;;;5039301;28;20462;-53
2023/03/15 04:08:48;;;;;;;2.60;1.37;;;;;;;;;;5034214;28;20446;-54
2023/03/15 04:11:16;;;;;;;3.37;1.90;;;;;;;;;;5040854;28;20928;-54
2023/03/15 04:13:42;;;;;;;2.60;1.63;;;;;;;;;;5012756;28;20521;-53
2023/03/15 04:16:08;;;;;;;4.83;2.47;;;;;;;;;;5040749;28;20868;-55
2023/03/15 04:18:34;;;;;;;7.97;2.03;;;;;;;;;;5018173;28;20459;-53
2023/03/15 04:21:00;;;;;;;2.40;1.90;;;;;;;;;;5044222;28;20496;-54
2023/03/15 04:23:26;;;;;;;2.80;1.70;;;;;;;;;;5013421;28;20436;-54
2023/03/15 04:25:53;;;;;;;4.50;1.90;;;;;;;;;;5034363;28;20192;-55
2023/03/15 04:28:21;;;;;;;4.70;3.10;;;;;;;;;;5033494;28;20426;-53
2023/03/15 04:30:48;;;;;;;7.67;2.60;;;;;;;;;;5013440;28;20507;-54
2023/03/15 04:33:14;;;;;;;5.20;2.40;;;;;;;;;;5032585;28;20561;-54
2023/03/15 04:35:58;;;;;;;5.20;2.30;;;;;;;;;;5041711;28;20569;-53
2023/03/15 04:38:25;;;;;;;6.67;3.70;;;;;;;;;;5035182;28;20935;-53
2023/03/15 04:40:53;;;;;;;5.07;2.80;;;;;;;;;;5038929;28;20446;-52
2023/03/15 04:43:19;;;;;;;5.87;3.50;;;;;;;;;;5012942;28;20460;-51
2023/03/15 04:45:45;;;;;;;5.53;3.07;;;;;;;;;;5032679;28;21128;-52
2023/03/15 04:48:11;;;;;;;3.70;2.80;;;;;;;;;;5025279;28;20460;-52
2023/03/15 04:50:37;;;;;;;4.90;2.43;;;;;;;;;;5034750;28;20541;-50
2023/03/15 04:53:03;;;;;;;4.80;2.80;;;;;;;;;;5011555;28;20470;-51
2023/03/15 04:55:29;;;;;;;3.23;2.33;;;;;;;;;;5038302;28;20435;-52
2023/03/15 04:57:55;;;;;;;5.30;2.60;;;;;;;;;;5004207;28;21021;-51
2023/03/15 05:00:21;;;;;;;4.60;1.80;;;;;;;;;;5029245;28;20438;-53
2023/03/15 05:02:53;;;;;;;3.40;2.50;;;;;;;;;;5035483;28;20438;-53
2023/03/15 05:05:19;;;;;;;3.70;2.40;;;;;;;;;;5039573;28;20927;-53
2023/03/15 05:07:45;;;;;;;2.73;2.20;;;;;;;;;;5004698;28;20473;-55
2023/03/15 05:10:11;;;;;;;5.50;3.10;;;;;;;;;;5029433;28;21289;-53
2023/03/15 05:12:37;;;;;;;5.70;2.57;;;;;;;;;;5004532;28;20449;-52
2023/03/15 05:15:03;;;;;;;4.80;2.67;;;;;;;;;;5031633;28;20474;-52
2023/03/15 05:17:29;;;;;;;7.93;2.63;;;;;;;;;;5027230;28;20448;-53
2023/03/15 05:19:55;;;;;;;3.00;2.80;;;;;;;;;;5037710;28;20529;-52
2023/03/15 05:22:24;;;;;;;5.20;4.03;;;;;;;;;;5028701;28;21268;-53
2023/03/15 05:24:52;;;;;;;2.80;2.60;;;;;;;;;;5023325;28;20880;-53
2023/03/15 05:27:18;;;;;;;8.47;3.20;;;;;;;;;;5001777;28;20530;-52
2023/03/15 05:29:44;;;;;;;2.93;2.60;;;;;;;;;;5035095;28;20518;-52
2023/03/15 05:32:10;;;;;;;6.47;3.43;;;;;;;;;;4995107;28;20454;-54
2023/03/15 05:34:36;;;;;;;6.00;3.80;;;;;;;;;;5034599;28;20997;-54
2023/03/15 05:37:02;;;;;;;8.97;3.47;;;;;;;;;;5002498;28;20440;-52
2023/03/15 05:39:28;;;;;;;5.03;2.50;;;;;;;;;;4984810;28;20439;-52
2023/03/15 05:41:54;;;;;;;9.33;2.30;;;;;;;;;;5037884;28;20801;-51
2023/03/15 05:44:21;;;;;;;5.00;2.70;;;;;;;;;;5008521;28;20774;-52
2023/03/15 05:46:47;;;;;;;5.50;2.60;;;;;;;;;;5025530;28;20648;-53
2023/03/15 05:49:13;;;;;;;3.90;3.10;;;;;;;;;;5004928;28;20442;-52
2023/03/15 05:51:40;;;;;;;3.70;2.23;;;;;;;;;;5034291;28;20461;-52
2023/03/15 05:54:06;;;;;;;5.40;2.57;;;;;;;;;;5011635;28;21535;-54
2023/03/15 05:56:32;;;;;;;3.80;1.97;;;;;;;;;;5038003;28;20977;-53
2023/03/15 05:59:01;;;;;;;2.30;1.90;;;;;;;;;;5015662;28;23456;-54
2023/03/15 06:01:27;;;;;;;5.10;3.40;;;;;;;;;;5034728;28;22726;-52
2023/03/15 06:03:53;;;;;;;4.60;2.40;;;;;;;;;;5016565;28;20538;-53
2023/03/15 06:06:19;;;;;;;5.30;2.70;;;;;;;;;;5026199;28;20456;-53
2023/03/15 06:09:00;;;;;;;;;;;;;;;;;;;;;
2023/03/15 06:11:28;;;;;;;1.97;1.60;;;;;;;;;;4998476;28;20441;-53
2023/03/15 06:13:54;;;;;;;4.70;2.60;;;;;;;;;;5021164;28;21110;-53
2023/03/15 06:16:23;;;;;;;2.83;2.63;;;;;;;;;;5014448;28;20570;-52
2023/03/15 06:18:49;;;;;;;4.40;1.60;;;;;;;;;;5028704;28;20461;-50
2023/03/15 06:21:15;;;;;;;6.03;3.50;;;;;;;;;;5023382;28;21869;-53
2023/03/15 06:23:41;;;;;;;5.97;2.63;;;;;;;;;;5024679;28;20470;-51
2023/03/15 06:26:07;;;;;;;3.10;2.67;;;;;;;;;;5042554;28;20464;-52
2023/03/15 06:28:33;;;;;;;7.23;2.87;;;;;;;;;;5038376;28;20507;-53
2023/03/15 06:31:04;;;;;;;3.90;1.80;;;;;;;;;;5028944;28;20443;-54
2023/03/15 06:33:30;;;;;;;4.63;1.93;;;;;;;;;;5020624;28;20475;-51
2023/03/15 06:35:56;;;;;;;3.87;2.17;;;;;;;;;;5045357;28;20823;-50
2023/03/15 06:38:22;;;;;;;7.60;2.73;;;;;;;;;;5018082;28;20533;-51
2023/03/15 06:40:49;;;;;;;13.37;3.43;;;;;;;;;;5041610;28;20541;-55
2023/03/15 06:43:18;;;;;;;7.10;2.77;;;;;;;;;;4997570;28;20434;-52
2023/03/15 06:45:47;;;;;;;9.17;2.60;;;;;;;;;;5035089;28;20496;-52
2023/03/15 06:48:15;;;;;;;5.90;2.70;;;;;;;;;;5018318;28;20469;-51
2023/03/15 06:50:41;;;;;;;4.10;2.20;;;;;;;;;;5049907;28;20486;-53
2023/03/15 06:53:07;;;;;;;4.10;2.17;;;;;;;;;;5016761;28;20434;-53
2023/03/15 06:55:33;;;;;;;3.03;1.87;;;;;;;;;;5042519;28;20539;-54
2023/03/15 06:57:59;;;;;;;6.27;2.40;;;;;;;;;;5058994;28;20810;-51
2023/03/15 07:00:25;;;;;;;4.40;1.90;;;;;;;;;;5037699;28;20488;-50
2023/03/15 07:02:51;;;;;;;4.27;2.70;;;;;;;;;;5012353;28;20442;-51
2023/03/15 07:05:17;;;;;;;3.70;2.27;;;;;;;;;;5042833;28;20438;-52
2023/03/15 07:07:43;;;;;;;6.70;4.00;;;;;;;;;;5014668;28;20937;-51
2023/03/15 07:10:10;;;;;;;6.50;2.60;;;;;;;;;;5042254;28;20431;-53
2023/03/15 07:12:40;;;;;;;4.60;2.50;;;;;;;;;;5030065;28;20454;-53
2023/03/15 07:15:08;;;;;;;4.80;2.50;;;;;;;;;;5022979;28;21003;-53
2023/03/15 07:17:34;;;;;;;3.37;1.80;;;;;;;;;;5033886;28;20433;-52
2023/03/15 07:20:00;;;;;;;5.57;2.03;;;;;;;;;;5011771;28;20811;-51
2023/03/15 07:22:26;;;;;;;4.23;2.43;;;;;;;;;;5036301;28;20423;-51
2023/03/15 07:24:52;;;;;;;4.97;3.33;;;;;;;;;;5002164;28;20454;-54
2023/03/15 07:27:18;;;;;;;8.23;2.30;;;;;;;;;;5041700;28;20443;-51
2023/03/15 07:29:44;;;;;;;10.33;2.77;;;;;;;;;;5037896;28;20442;-52
2023/03/15 07:32:10;;;;;;;3.27;2.20;;;;;;;;;;5035874;28;20442;-53
2023/03/15 07:34:36;;;;;;;4.80;1.80;;;;;;;;;;5008370;28;20482;-52
2023/03/15 07:37:02;;;;;;;4.20;2.00;;;;;;;;;;5043822;28;20441;-54
2023/03/15 07:39:31;;;;;;;10.17;4.80;;;;;;;;;;5037182;28;20442;-54
2023/03/15 07:41:57;;;;;;;2.97;1.80;;;;;;;;;;5041655;28;20431;-54
2023/03/15 07:44:23;;;;;;;2.27;1.80;;;;;;;;;;4998510;28;21683;-53
2023/03/15 07:46:49;;;;;;;2.97;1.80;;;;;;;;;;5040186;28;21002;-55
2023/03/15 07:49:15;;;;;;;7.07;2.33;;;;;;;;;;5033899;28;20446;-52
2023/03/15 07:51:42;;;;;;;6.97;2.63;;;;;;;;;;5037635;28;20439;-54
2023/03/15 07:54:08;;;;;;;3.23;2.00;;;;;;;;;;5015187;28;20942;-52
2023/03/15 07:56:34;;;;;;;4.40;1.97;;;;;;;;;;5041472;28;20444;-50
2023/03/15 07:59:00;;;;;;;2.23;2.03;;;;;;;;;;5002640;28;20454;-52
2023/03/15 08:01:26;;;;;;;5.50;1.83;;;;;;;;;;4986135;28;20445;-52
2023/03/15 08:03:52;;;;;;;4.20;2.10;;;;;;;;;;5040150;28;20438;-51
2023/03/15 08:06:18;;;;;;;6.40;1.80;;;;;;;;;;5009338;28;21410;-52
2023/03/15 08:08:45;;;;;;;4.93;2.20;;;;;;;;;;5038908;28;20546;-52
2023/03/15 08:11:11;;;;;;;4.50;2.47;;;;;;;;;;5016812;28;20435;-53
2023/03/15 08:13:37;;;;;;;5.00;2.00;;;;;;;;;;5037801;28;20478;-52
2023/03/15 08:16:06;;;;;;;6.30;1.90;;;;;;;;;;5001886;28;20442;-53
2023/03/15 08:18:32;;;;;;;8.97;1.97;;;;;;;;;;5032789;28;20971;-53
2023/03/15 08:20:58;;;;;;;2.57;1.80;;;;;;;;;;5030343;28;20437;-52
2023/03/15 08:23:24;;;;;;;3.90;3.50;;;;;;;;;;5039022;28;20411;-53
2023/03/15 08:25:50;;;;;;;4.50;1.87;;;;;;;;;;5014685;28;20469;-52
2023/03/15 08:28:16;;;;;;;4.00;2.17;;;;;;;;;;5031890;28;20434;-53
2023/03/15 08:30:42;;;;;;;8.23;1.97;;;;;;;;;;5021646;28;20805;-52
2023/03/15 08:33:11;;;;;;;5.73;1.80;;;;;;;;;;5026659;28;20442;-51
2023/03/15 08:35:37;;;;;;;4.13;2.00;;;;;;;;;;5035248;28;20469;-53
2023/03/15 08:38:03;;;;;;;6.97;2.03;;;;;;;;;;5033297;28;20438;-51
2023/03/15 08:40:29;;;;;;;3.27;2.17;;;;;;;;;;5035559;28;20790;-52
2023/03/15 08:42:55;;;;;;;2.60;2.00;;;;;;;;;;5015330;28;20438;-52
2023/03/15 08:45:26;;;;;;;1.97;1.50;;;;;;;;;;5030094;28;20433;-53
2023/03/15 08:47:55;;;;;;;6.07;2.10;;;;;;;;;;5002468;28;20438;-53
2023/03/15 08:50:21;;;;;;;4.33;1.70;;;;;;;;;;5039205;28;20913;-53
2023/03/15 08:52:47;;;;;;;2.20;1.70;;;;;;;;;;5012261;28;20431;-53
2023/03/15 08:55:13;;;;;;;3.63;2.10;;;;;;;;;;5039093;28;20482;-53
2023/03/15 08:57:40;;;;;;;6.13;1.97;;;;;;;;;;5013117;28;20437;-53
2023/03/15 09:00:09;;;;;;;3.77;1.93;;;;;;;;;;5041652;28;20425;-53
2023/03/15 09:02:35;;;;;;;4.67;1.90;;;;;;;;;;5003777;28;20458;-54
2023/03/15 09:05:01;;;;;;;6.47;2.20;;;;;;;;;;5035901;28;20447;-52
2023/03/15 09:07:27;;;;;;;7.33;2.63;;;;;;;;;;5011765;28;20437;-53
2023/03/15 09:09:53;;;;;;;3.10;2.10;;;;;;;;;;5038794;28;20446;-52
2023/03/15 09:12:20;;;;;;;4.53;1.90;;;;;;;;;;5011158;28;20509;-51
2023/03/15 09:14:46;;;;;;;4.60;1.60;;;;;;;;;;5036907;28;20606;-53
2023/03/15 09:17:12;;;;;;;4.30;1.83;;;;;;;;;;4997384;28;20535;-53
2023/03/15 09:19:38;;;;;;;2.50;2.10;;;;;;;;;;5051182;28;20446;-54
2023/03/15 09:22:04;;;;;;;4.10;1.70;;;;;;;;;;5038170;28;20464;-53
2023/03/15 09:24:30;;;;;;;6.17;2.20;;;;;;;;;;5014020;28;20465;-52
2023/03/15 09:26:56;;;;;;;5.03;1.77;;;;;;;;;;5038405;28;20430;-51
2023/03/15 09:29:22;;;;;;;6.20;1.57;;;;;;;;;;5012218;28;21034;-53
2023/03/15 09:31:48;;;;;;;2.63;1.30;;;;;;;;;;5034153;28;20430;-53
2023/03/15 09:34:14;;;;;;;5.70;1.77;;;;;;;;;;5014068;28;20577;-52
2023/03/15 09:36:40;;;;;;;2.90;1.57;;;;;;;;;;5040524;28;20882;-52
2023/03/15 09:39:07;;;;;;;5.87;1.93;;;;;;;;;;5024177;28;20456;-53
2023/03/15 09:41:42;;;;;;;4.13;1.70;;;;;;;;;;5034915;28;20523;-52
2023/03/15 09:44:27;;;;;;;4.23;1.77;;;;;;;;;;5007425;28;20450;-52
2023/03/15 09:47:04;;;;;;;3.67;1.33;;;;;;;;;;5034623;28;20434;-53
2023/03/15 09:49:30;;;;;;;3.20;1.47;;;;;;;;;;5004099;28;20438;-52
2023/03/15 09:52:00;;;;;;;4.67;1.43;;;;;;;;;;5041720;28;20434;-52
2023/03/15 09:54:40;;;;;;;2.00;1.63;;;;;;;;;;5011089;28;20475;-51
2023/03/15 09:57:10;;;;;;;3.20;1.27;;;;;;;;;;5022155;28;21038;-52
2023/03/15 09:59:38;;;;;;;2.33;1.17;;;;;;;;;;5012536;28;20430;-50
2023/03/15 10:02:12;;;;;;;4.40;1.77;;;;;;;;;;5033705;28;20446;-52
2023/03/15 10:04:40;;;;;;;3.00;1.23;;;;;;;;;;5006344;28;20800;-53
2023/03/15 10:07:06;;;;;;;4.60;1.83;;;;;;;;;;5036445;28;20427;-52
2023/03/15 10:09:33;;;;;;;5.03;2.07;;;;;;;;;;5034743;28;20803;-55
2023/03/15 10:12:05;;;;;;;1.70;1.27;;;;;;;;;;5010256;28;20539;-53
2023/03/15 10:14:32;;;;;;;2.93;1.23;;;;;;;;;;5035966;28;20489;-53
2023/03/15 10:16:59;;;;;;;4.33;1.70;;;;;;;;;;5002898;28;20541;-52
2023/03/15 10:19:34;;;;;;;4.13;1.13;;;;;;;;;;5052436;28;20454;-55
2023/03/15 10:22:09;;;;;;;2.73;1.10;;;;;;;;;;4989616;28;21316;-51
2023/03/15 10:24:47;;;;;;;2.43;1.23;;;;;;;;;;5037916;28;20457;-53
2023/03/15 10:27:34;;;;;;;7.73;1.17;;;;;;;;;;5035705;28;21348;-51
2023/03/15 10:30:00;;;;;;;4.63;1.20;;;;;;;;;;5046228;28;20438;-53
2023/03/15 10:32:30;;;;;;;4.20;1.80;;;;;;;;;;5013584;28;20442;-52
2023/03/15 10:34:56;;;;;;;1.40;1.13;;;;;;;;;;5040612;28;20474;-52
2023/03/15 10:37:23;;;;;;;1.77;1.00;;;;;;;;;;5038908;28;20821;-51
2023/03/15 10:39:50;;;;;;;6.43;1.20;;;;;;;;;;5031595;28;20439;-52
2023/03/15 10:42:26;;;;;;;4.07;1.30;;;;;;;;;;5036085;28;20426;-52
2023/03/15 10:44:52;;;;;;;1.53;1.43;;;;;;;;;;5032290;28;21191;-50
2023/03/15 10:47:19;;;;;;;1.50;1.20;;;;;;;;;;5009359;28;20866;-50
2023/03/15 10:49:45;;;;;;;2.63;1.10;;;;;;;;;;5041204;28;21024;-52
2023/03/15 10:52:27;;;;;;;3.83;1.53;;;;;;;;;;5012818;28;20455;-52
2023/03/15 10:54:53;;;;;;;5.13;1.77;;;;;;;;;;5038392;28;21081;-52
2023/03/15 10:57:20;;;;;;;2.63;1.40;;;;;;;;;;5055195;28;20525;-52
2023/03/15 11:00:04;;;;;;;7.00;1.83;;;;;;;;;;5031500;28;20462;-54
2023/03/15 11:02:30;;;;;;;3.50;1.53;;;;;;;;;;5028350;28;20504;-53
2023/03/15 11:05:00;;;;;;;2.00;1.47;;;;;;;;;;5020465;28;20435;-53
2023/03/15 11:07:26;;;;;;;3.03;1.70;;;;;;;;;;5039103;28;20426;-52
2023/03/15 11:09:53;;;;;;;3.50;1.30;;;;;;;;;;5038119;28;20963;-52
2023/03/15 11:12:23;;;;;;;2.40;1.30;;;;;;;;;;5036329;28;20583;-52
2023/03/15 11:14:49;;;;;;;3.13;1.60;;;;;;;;;;5019927;28;20481;-53
2023/03/15 11:17:26;;;;;;;2.70;0.77;;;;;;;;;;5040666;28;20438;-52
2023/03/15 11:20:12;;;;;;;2.87;1.67;;;;;;;;;;5015648;28;20449;-52
2023/03/15 11:22:44;;;;;;;1.40;1.23;;;;;;;;;;5015621;28;20822;-54
2023/03/15 11:25:14;;;;;;;1.67;0.93;;;;;;;;;;5020341;28;20582;-53
2023/03/15 11:27:42;;;;;;;2.60;1.17;;;;;;;;;;5032307;28;20446;-52
2023/03/15 11:30:12;;;;;;;2.03;1.10;;;;;;;;;;5037798;28;20950;-53
2023/03/15 11:32:38;;;;;;;2.63;1.50;;;;;;;;;;5014609;28;20434;-52
2023/03/15 11:35:08;;;;;;;1.43;1.07;;;;;;;;;;5044400;28;20842;-52
2023/03/15 11:37:37;;;;;;;1.97;1.00;;;;;;;;;;5013046;28;20510;-53
2023/03/15 11:40:04;;;;;;;2.17;1.53;;;;;;;;;;5037429;28;20438;-53
2023/03/15 11:42:33;;;;;;;1.90;1.10;;;;;;;;;;5023529;28;20486;-51
2023/03/15 11:45:01;;;;;;;2.73;1.03;;;;;;;;;;5012145;28;20453;-52
2023/03/15 11:47:46;;;;;;;2.47;1.57;;;;;;;;;;5047358;28;20450;-52
2023/03/15 11:50:13;;;;;;;3.90;1.10;;;;;;;;;;5039149;28;20445;-54
2023/03/15 11:52:40;;;;;;;1.43;1.00;;;;;;;;;;5000207;28;20442;-52
2023/03/15 11:55:06;;;;;;;1.80;1.10;;;;;;;;;;5043678;28;20594;-51
2023/03/15 11:57:45;;;;;;;8.30;1.10;;;;;;;;;;4992179;28;20481;-53
2023/03/15 12:00:16;;;;;;;2.57;0.80;;;;;;;;;;5040326;28;20978;-52
2023/03/15 12:02:49;;;;;;;2.10;1.10;;;;;;;;;;5002326;28;20458;-51
2023/03/15 12:05:40;;;;;;;1.87;1.10;;;;;;;;;;5004493;28;20447;-53
2023/03/15 12:08:16;;;;;;;1.87;1.10;;;;;;;;;;5026710;28;20471;-53
2023/03/15 12:10:45;;;;;;;5.27;1.57;;;;;;;;;;4986788;28;20441;-51
2023/03/15 12:13:17;;;;;;;2.90;0.83;;;;;;;;;;5032732;28;20442;-53
2023/03/15 12:15:43;;;;;;;1.30;0.87;;;;;;;;;;5008183;28;20454;-54
2023/03/15 12:18:13;;;;;;;2.33;0.87;;;;;;;;;;5034039;28;20959;-53
2023/03/15 12:20:40;;;;;;;1.40;0.83;;;;;;;;;;5030384;28;20438;-52
2023/03/15 12:23:09;;;;;;;1.23;0.87;;;;;;;;;;5036798;28;20809;-52
2023/03/15 12:25:35;;;;;;;1.57;1.20;;;;;;;;;;4991414;28;20457;-53
2023/03/15 12:28:04;;;;;;;1.40;0.90;;;;;;;;;;5024672;28;20951;-52
2023/03/15 12:30:47;;;;;;;1.30;0.80;;;;;;;;;;5026664;28;20442;-53
2023/03/15 12:33:14;;;;;;;1.50;1.10;;;;;;;;;;5002232;28;20489;-52
2023/03/15 12:35:40;;;;;;;1.40;0.73;;;;;;;;;;5037710;28;20442;-51
2023/03/15 12:38:11;;;;;;;2.57;0.93;;;;;;;;;;5012320;28;20438;-53
2023/03/15 12:40:39;;;;;;;3.97;1.13;;;;;;;;;;5037297;28;20441;-51
2023/03/15 12:43:05;;;;;;;5.93;1.83;;;;;;;;;;5011957;28;20442;-53
2023/03/15 12:45:38;;;;;;;2.73;0.90;;;;;;;;;;4977668;28;20448;-51
2023/03/15 12:48:17;;;;;;;2.50;1.30;;;;;;;;;;5036767;28;20527;-53
2023/03/15 12:50:43;;;;;;;3.97;1.77;;;;;;;;;;5029711;28;20608;-54
2023/03/15 12:53:24;;;;;;;1.77;1.17;;;;;;;;;;5030129;28;20614;-52
2023/03/15 12:55:50;;;;;;;3.67;1.30;;;;;;;;;;4997585;28;20461;-54
2023/03/15 12:58:16;;;;;;;3.30;1.87;;;;;;;;;;5033432;28;20557;-51
2023/03/15 13:00:47;;;;;;;1.30;1.10;;;;;;;;;;4997731;28;21162;-52
2023/03/15 13:03:18;;;;;;;3.50;1.30;;;;;;;;;;5032967;28;20534;-50
2023/03/15 13:05:59;;;;;;;1.63;0.90;;;;;;;;;;5033951;28;20430;-53
2023/03/15 13:08:29;;;;;;;2.20;1.30;;;;;;;;;;5036076;28;20495;-53
2023/03/15 13:11:13;;;;;;;3.40;1.40;;;;;;;;;;4999822;28;20963;-55
2023/03/15 13:13:55;;;;;;;3.00;1.50;;;;;;;;;;5033126;28;21633;-54
2023/03/15 13:16:21;;;;;;;1.97;1.20;;;;;;;;;;5006175;28;20966;-54
2023/03/15 13:18:51;;;;;;;2.50;1.40;;;;;;;;;;5036530;28;20430;-53
2023/03/15 13:21:46;;;;;;;2.20;1.43;;;;;;;;;;5008095;28;20279;-51
2023/03/15 13:24:16;;;;;;;4.43;1.50;;;;;;;;;;5012707;28;20456;-52
2023/03/15 13:26:47;;;;;;;2.83;1.90;;;;;;;;;;5016709;28;20430;-54
2023/03/15 13:29:16;;;;;;;4.73;1.80;;;;;;;;;;5027125;28;21724;-52
2023/03/15 13:31:43;;;;;;;3.87;1.33;;;;;;;;;;5006086;28;21213;-50
2023/03/15 13:34:49;;;;;;;;;;;;;;;;;;;;;
2023/03/15 13:37:24;;;;;;;1.73;1.33;;;;;;;;;;5009269;28;20440;-52
2023/03/15 13:39:59;;;;;;;3.67;1.70;;;;;;;;;;5028649;28;20440;-52
2023/03/15 13:42:25;;;;;;;1.60;1.20;;;;;;;;;;5041047;28;20441;-54
2023/03/15 13:45:10;;;;;;;1.70;1.20;;;;;;;;;;5012382;28;20441;-54
2023/03/15 13:47:36;;;;;;;2.43;1.53;;;;;;;;;;5040390;28;20470;-53
2023/03/15 13:50:02;;;;;;;5.50;1.97;;;;;;;;;;5009386;28;20983;-53
2023/03/15 13:52:28;;;;;;;3.10;1.97;;;;;;;;;;5039048;28;20468;-53
2023/03/15 13:54:55;;;;;;;7.13;1.10;;;;;;;;;;5015120;28;20722;-51
2023/03/15 13:57:21;;;;;;;3.63;1.80;;;;;;;;;;5022931;28;20446;-53
2023/03/15 13:59:59;;;;;;;2.50;1.80;;;;;;;;;;5020973;28;20450;-53
2023/03/15 14:02:27;;;;;;;5.73;1.60;;;;;;;;;;5037761;28;20453;-52
2023/03/15 14:04:57;;;;;;;1.40;1.20;;;;;;;;;;5025132;28;20422;-52
2023/03/15 14:07:36;;;;;;;4.23;2.30;;;;;;;;;;5036523;28;20454;-52
2023/03/15 14:10:22;;;;;;;3.53;1.97;;;;;;;;;;5006667;28;20433;-51
2023/03/15 14:12:48;;;;;;;3.50;1.67;;;;;;;;;;5045339;28;20450;-54
2023/03/15 14:15:25;;;;;;;2.57;1.23;;;;;;;;;;5030086;28;20482;-54
2023/03/15 14:17:59;;;;;;;1.87;1.40;;;;;;;;;;5056920;28;20441;-52
2023/03/15 14:20:28;;;;;;;5.93;2.73;;;;;;;;;;5017863;28;20453;-54
2023/03/15 14:22:57;;;;;;;5.27;1.87;;;;;;;;;;5033854;28;20434;-52
2023/03/15 14:25:23;;;;;;;2.20;1.93;;;;;;;;;;5014515;28;20602;-51
2023/03/15 14:27:49;;;;;;;4.23;1.73;;;;;;;;;;5044341;28;20495;-52
2023/03/15 14:30:22;;;;;;;3.17;1.47;;;;;;;;;;5053335;28;20443;-51
2023/03/15 14:32:52;;;;;;;1.73;1.40;;;;;;;;;;5039983;28;20438;-54
2023/03/15 14:35:18;;;;;;;3.70;1.67;;;;;;;;;;5015450;28;20486;-53
2023/03/15 14:37:44;;;;;;;3.47;2.07;;;;;;;;;;5040959;28;20898;-52
2023/03/15 14:40:19;;;;;;;1.70;1.43;;;;;;;;;;5015898;28;20840;-52
2023/03/15 14:42:46;;;;;;;2.40;1.40;;;;;;;;;;5028405;28;21169;-51
2023/03/15 14:45:12;;;;;;;2.70;1.47;;;;;;;;;;5026818;28;22126;-52
2023/03/15 14:47:40;;;;;;;3.00;1.20;;;;;;;;;;5001586;28;21319;-50
2023/03/15 14:50:12;;;;;;;2.13;1.50;;;;;;;;;;5030157;28;20443;-52
2023/03/15 14:52:38;;;;;;;1.90;1.30;;;;;;;;;;5008207;28;20450;-50
2023/03/15 14:55:04;;;;;;;5.17;1.90;;;;;;;;;;5034043;28;20484;-53
2023/03/15 14:57:30;;;;;;;2.60;1.60;;;;;;;;;;5032257;28;21031;-52